sensor_id;sensor_type;location;lat;lon;timestamp;pressure;altitude;pressure_sealevel;temperature;humidity
47330;BME280;33060;50.178;7.570;2023-03-16T00:01:07;97351.53;;;0.79;74.72
47330;BME280;33060;50.178;7.570;2023-03-16T00:03:34;97343.66;;;0.82;73.86
47330;BME280;33060;50.178;7.570;2023-03-16T00:06:02;97349.66;;;0.84;74.49
47330;BME280;33060;50.178;7.570;2023-03-16T00:08:29;97340.31;;;0.77;74.86
47330;BME280;33060;50.178;7.570;2023-03-16T00:10:55;97341.16;;;0.78;75.06
47330;BME280;33060;50.178;7.570;2023-03-16T00:13:23;97348.28;;;0.71;75.37
47330;BME280;33060;50.178;7.570;2023-03-16T00:15:53;97347.59;;;0.65;75.75
47330;BME280;33060;50.178;7.570;2023-03-16T00:18:22;97350.22;;;0.63;75.77
47330;BME280;33060;50.178;7.570;2023-03-16T00:20:57;97347.63;;;0.63;75.68
47330;BME280;33060;50.178;7.570;2023-03-16T00:23:25;97350.47;;;0.54;76.68
47330;BME280;33060;50.178;7.570;2023-03-16T00:25:58;97362.47;;;0.58;76.31
47330;BME280;33060;50.178;7.570;2023-03-16T00:28:26;97361.69;;;0.54;76.66
47330;BME280;33060;50.178;7.570;2023-03-16T00:30:53;97356.50;;;0.54;77.04
47330;BME280;33060;50.178;7.570;2023-03-16T00:33:25;97348.66;;;0.56;77.22
47330;BME280;33060;50.178;7.570;2023-03-16T00:35:52;97349.41;;;0.61;76.74
47330;BME280;33060;50.178;7.570;2023-03-16T00:38:30;97353.56;;;0.67;76.83
47330;BME280;33060;50.178;7.570;2023-03-16T00:40:57;97362.25;;;0.66;76.31
47330;BME280;33060;50.178;7.570;2023-03-16T00:43:24;97369.19;;;0.65;76.81
47330;BME280;33060;50.178;7.570;2023-03-16T00:46:01;97370.38;;;0.52;78.22
47330;BME280;33060;50.178;7.570;2023-03-16T00:48:33;97371.28;;;0.51;79.11
47330;BME280;33060;50.178;7.570;2023-03-16T00:51:06;97368.91;;;0.42;78.84
47330;BME280;33060;50.178;7.570;2023-03-16T00:53:34;97365.66;;;0.34;79.18
47330;BME280;33060;50.178;7.570;2023-03-16T00:56:02;97356.19;;;0.33;79.64
47330;BME280;33060;50.178;7.570;2023-03-16T00:58:34;97350.13;;;0.32;79.88
47330;BME280;33060;50.178;7.570;2023-03-16T01:01:03;97348.34;;;0.34;79.95
47330;BME280;33060;50.178;7.570;2023-03-16T01:03:31;97345.75;;;0.36;79.92
47330;BME280;33060;50.178;7.570;2023-03-16T01:06:02;97360.22;;;0.44;79.82
47330;BME280;33060;50.178;7.570;2023-03-16T01:08:30;97368.78;;;0.48;80.47
47330;BME280;33060;50.178;7.570;2023-03-16T01:11:04;97361.75;;;0.51;80.38
47330;BME280;33060;50.178;7.570;2023-03-16T01:13:31;97357.25;;;0.58;80.30
47330;BME280;33060;50.178;7.570;2023-03-16T01:15:59;97354.47;;;0.66;80.86
47330;BME280;33060;50.178;7.570;2023-03-16T01:18:26;97336.06;;;0.75;79.92
47330;BME280;33060;50.178;7.570;2023-03-16T01:20:53;97329.00;;;0.80;80.21
47330;BME280;33060;50.178;7.570;2023-03-16T01:23:21;97331.31;;;0.91;79.62
47330;BME280;33060;50.178;7.570;2023-03-16T01:25:48;97330.38;;;0.93;79.64
47330;BME280;33060;50.178;7.570;2023-03-16T01:28:26;97326.75;;;0.99;79.54
47330;BME280;33060;50.178;7.570;2023-03-16T01:31:02;97324.91;;;1.02;79.42
47330;BME280;33060;50.178;7.570;2023-03-16T01:33:31;97317.97;;;1.03;79.27
47330;BME280;33060;50.178;7.570;2023-03-16T01:36:02;97316.28;;;1.02;79.75
47330;BME280;33060;50.178;7.570;2023-03-16T01:38:38;97303.34;;;1.00;80.04
47330;BME280;33060;50.178;7.570;2023-03-16T01:41:05;97293.69;;;1.04;80.15
47330;BME280;33060;50.178;7.570;2023-03-16T01:43:34;97291.94;;;1.06;79.94
47330;BME280;33060;50.178;7.570;2023-03-16T01:48:43;97294.34;;;1.12;79.63
47330;BME280;33060;50.178;7.570;2023-03-16T01:51:16;97290.94;;;1.10;80.11
47330;BME280;33060;50.178;7.570;2023-03-16T01:53:50;97301.38;;;1.08;79.78
47330;BME280;33060;50.178;7.570;2023-03-16T01:56:23;97293.59;;;1.08;79.85
47330;BME280;33060;50.178;7.570;2023-03-16T01:58:52;97288.44;;;1.07;80.13
47330;BME280;33060;50.178;7.570;2023-03-16T02:01:27;97285.03;;;1.05;81.17
47330;BME280;33060;50.178;7.570;2023-03-16T02:06:58;97278.03;;;1.07;80.40
47330;BME280;33060;50.178;7.570;2023-03-16T02:09:28;97281.28;;;1.15;80.04
47330;BME280;33060;50.178;7.570;2023-03-16T02:11:55;97276.19;;;1.10;80.63
47330;BME280;33060;50.178;7.570;2023-03-16T02:14:24;97265.13;;;1.04;80.83
47330;BME280;33060;50.178;7.570;2023-03-16T02:16:51;97268.78;;;0.98;81.10
47330;BME280;33060;50.178;7.570;2023-03-16T02:19:30;97267.19;;;0.93;81.44
47330;BME280;33060;50.178;7.570;2023-03-16T02:22:04;97268.94;;;0.92;81.34
47330;BME280;33060;50.178;7.570;2023-03-16T02:24:33;97259.44;;;0.91;81.97
47330;BME280;33060;50.178;7.570;2023-03-16T02:27:03;97253.34;;;0.92;82.06
47330;BME280;33060;50.178;7.570;2023-03-16T02:32:11;97243.13;;;0.88;82.33
47330;BME280;33060;50.178;7.570;2023-03-16T02:34:39;97239.84;;;0.81;82.29
47330;BME280;33060;50.178;7.570;2023-03-16T02:37:09;97240.75;;;0.80;82.35
47330;BME280;33060;50.178;7.570;2023-03-16T02:39:35;97243.38;;;0.78;82.75
47330;BME280;33060;50.178;7.570;2023-03-16T02:42:03;97231.19;;;0.80;82.38
47330;BME280;33060;50.178;7.570;2023-03-16T02:44:32;97229.47;;;0.81;82.54
47330;BME280;33060;50.178;7.570;2023-03-16T02:47:06;97227.66;;;0.83;81.98
47330;BME280;33060;50.178;7.570;2023-03-16T02:49:39;97237.03;;;0.89;81.42
47330;BME280;33060;50.178;7.570;2023-03-16T02:52:07;97238.78;;;0.87;80.90
47330;BME280;33060;50.178;7.570;2023-03-16T02:54:34;97238.69;;;0.91;80.65
47330;BME280;33060;50.178;7.570;2023-03-16T02:57:01;97232.47;;;0.97;80.18
47330;BME280;33060;50.178;7.570;2023-03-16T02:59:29;97231.47;;;1.01;79.39
47330;BME280;33060;50.178;7.570;2023-03-16T03:02:02;97227.16;;;1.00;79.66
47330;BME280;33060;50.178;7.570;2023-03-16T03:04:29;97221.19;;;0.98;79.42
47330;BME280;33060;50.178;7.570;2023-03-16T03:06:58;97221.25;;;0.95;79.54
47330;BME280;33060;50.178;7.570;2023-03-16T03:09:34;97224.75;;;0.94;78.84
47330;BME280;33060;50.178;7.570;2023-03-16T03:12:01;97223.00;;;0.94;78.96
47330;BME280;33060;50.178;7.570;2023-03-16T03:14:28;97221.28;;;0.93;78.56
47330;BME280;33060;50.178;7.570;2023-03-16T03:16:55;97222.19;;;0.92;78.18
47330;BME280;33060;50.178;7.570;2023-03-16T03:19:22;97221.34;;;0.92;78.28
47330;BME280;33060;50.178;7.570;2023-03-16T03:21:49;97215.19;;;0.96;78.15
47330;BME280;33060;50.178;7.570;2023-03-16T03:24:16;97223.78;;;0.98;77.70
47330;BME280;33060;50.178;7.570;2023-03-16T03:26:45;97233.25;;;0.99;77.48
47330;BME280;33060;50.178;7.570;2023-03-16T03:29:18;97222.88;;;0.99;78.27
47330;BME280;33060;50.178;7.570;2023-03-16T03:31:44;97223.78;;;0.98;78.38
47330;BME280;33060;50.178;7.570;2023-03-16T03:34:12;97219.47;;;0.97;78.50
47330;BME280;33060;50.178;7.570;2023-03-16T03:36:39;97213.34;;;0.99;78.22
47330;BME280;33060;50.178;7.570;2023-03-16T03:39:06;97213.44;;;0.96;78.58
47330;BME280;33060;50.178;7.570;2023-03-16T03:41:34;97212.59;;;0.96;78.61
47330;BME280;33060;50.178;7.570;2023-03-16T03:44:03;97210.00;;;0.94;78.90
47330;BME280;33060;50.178;7.570;2023-03-16T03:46:30;97217.06;;;0.91;79.33
47330;BME280;33060;50.178;7.570;2023-03-16T03:48:56;97216.94;;;0.94;79.34
47330;BME280;33060;50.178;7.570;2023-03-16T03:51:31;97211.00;;;0.90;79.72
47330;BME280;33060;50.178;7.570;2023-03-16T03:54:08;97208.38;;;0.92;79.11
47330;BME280;33060;50.178;7.570;2023-03-16T03:56:44;97204.06;;;0.91;79.74
47330;BME280;33060;50.178;7.570;2023-03-16T03:59:14;97201.44;;;0.92;79.19
47330;BME280;33060;50.178;7.570;2023-03-16T04:02:01;97200.47;;;0.95;79.09
47330;BME280;33060;50.178;7.570;2023-03-16T04:04:56;97200.47;;;0.95;79.11
47330;BME280;33060;50.178;7.570;2023-03-16T04:07:23;97197.06;;;0.93;79.72
47330;BME280;33060;50.178;7.570;2023-03-16T04:09:53;97194.47;;;0.93;79.47
47330;BME280;33060;50.178;7.570;2023-03-16T04:12:27;97195.31;;;0.93;78.85
47330;BME280;33060;50.178;7.570;2023-03-16T04:14:54;97191.88;;;0.93;79.04
47330;BME280;33060;50.178;7.570;2023-03-16T04:17:22;97195.31;;;0.93;79.12
47330;BME280;33060;50.178;7.570;2023-03-16T04:19:50;97198.72;;;0.97;79.26
47330;BME280;33060;50.178;7.570;2023-03-16T04:22:17;97197.88;;;0.95;79.38
47330;BME280;33060;50.178;7.570;2023-03-16T04:24:46;97196.19;;;0.94;79.31
47330;BME280;33060;50.178;7.570;2023-03-16T04:27:13;97196.91;;;0.99;79.03
47330;BME280;33060;50.178;7.570;2023-03-16T04:29:39;97195.22;;;0.98;79.21
47330;BME280;33060;50.178;7.570;2023-03-16T04:32:06;97195.38;;;0.92;79.72
47330;BME280;33060;50.178;7.570;2023-03-16T04:34:34;97191.94;;;0.91;80.41
47330;BME280;33060;50.178;7.570;2023-03-16T04:37:04;97197.00;;;0.96;79.80
47330;BME280;33060;50.178;7.570;2023-03-16T04:39:33;97194.41;;;0.96;80.50
47330;BME280;33060;50.178;7.570;2023-03-16T04:41:59;97188.38;;;0.94;80.99
47330;BME280;33060;50.178;7.570;2023-03-16T04:44:27;97189.25;;;0.94;81.19
47330;BME280;33060;50.178;7.570;2023-03-16T04:46:54;97188.31;;;0.97;81.04
47330;BME280;33060;50.178;7.570;2023-03-16T04:49:23;97190.91;;;0.97;81.52
47330;BME280;33060;50.178;7.570;2023-03-16T04:51:50;97186.75;;;0.91;82.06
47330;BME280;33060;50.178;7.570;2023-03-16T04:54:18;97173.66;;;0.94;82.12
47330;BME280;33060;50.178;7.570;2023-03-16T04:56:45;97178.91;;;0.93;82.90
47330;BME280;33060;50.178;7.570;2023-03-16T04:59:26;97170.25;;;0.92;82.58
47330;BME280;33060;50.178;7.570;2023-03-16T05:02:04;97167.63;;;0.94;82.71
47330;BME280;33060;50.178;7.570;2023-03-16T05:04:31;97165.84;;;0.96;82.88
47330;BME280;33060;50.178;7.570;2023-03-16T05:07:00;97169.28;;;0.96;82.62
47330;BME280;33060;50.178;7.570;2023-03-16T05:09:32;97158.91;;;0.95;83.22
47330;BME280;33060;50.178;7.570;2023-03-16T05:11:59;97154.56;;;0.95;83.24
47330;BME280;33060;50.178;7.570;2023-03-16T05:14:26;97154.56;;;0.95;83.70
47330;BME280;33060;50.178;7.570;2023-03-16T05:17:31;97146.88;;;0.92;84.20
47330;BME280;33060;50.178;7.570;2023-03-16T05:19:58;97145.09;;;0.94;83.90
47330;BME280;33060;50.178;7.570;2023-03-16T05:22:26;97139.94;;;0.93;83.97
47330;BME280;33060;50.178;7.570;2023-03-16T05:25:11;97145.16;;;0.93;84.09
47330;BME280;33060;50.178;7.570;2023-03-16T05:27:44;97146.88;;;0.92;84.12
47330;BME280;33060;50.178;7.570;2023-03-16T05:30:18;97142.66;;;0.90;84.57
47330;BME280;33060;50.178;7.570;2023-03-16T05:32:45;97133.16;;;0.89;84.43
47330;BME280;33060;50.178;7.570;2023-03-16T05:35:13;97142.69;;;0.88;84.91
47330;BME280;33060;50.178;7.570;2023-03-16T05:37:40;97147.03;;;0.88;85.37
47330;BME280;33060;50.178;7.570;2023-03-16T05:40:13;97145.31;;;0.87;85.58
47330;BME280;33060;50.178;7.570;2023-03-16T05:42:53;97147.03;;;0.88;86.25
47330;BME280;33060;50.178;7.570;2023-03-16T05:45:22;97143.63;;;0.85;86.73
47330;BME280;33060;50.178;7.570;2023-03-16T05:48:03;97151.38;;;0.87;86.72
47330;BME280;33060;50.178;7.570;2023-03-16T05:50:33;97149.44;;;0.94;86.42
47330;BME280;33060;50.178;7.570;2023-03-16T05:53:00;97147.84;;;0.90;87.16
47330;BME280;33060;50.178;7.570;2023-03-16T05:55:27;97151.06;;;0.98;87.40
47330;BME280;33060;50.178;7.570;2023-03-16T05:57:58;97156.03;;;1.04;86.71
47330;BME280;33060;50.178;7.570;2023-03-16T06:00:25;97150.81;;;1.05;86.92
47330;BME280;33060;50.178;7.570;2023-03-16T06:03:04;97148.97;;;1.09;86.78
47330;BME280;33060;50.178;7.570;2023-03-16T06:05:34;97154.88;;;1.14;86.88
47330;BME280;33060;50.178;7.570;2023-03-16T06:08:01;97153.78;;;1.21;86.74
47330;BME280;33060;50.178;7.570;2023-03-16T06:10:28;97156.91;;;1.32;86.22
47330;BME280;33060;50.178;7.570;2023-03-16T06:12:56;97154.81;;;1.44;85.61
47330;BME280;33060;50.178;7.570;2023-03-16T06:15:25;97153.84;;;1.46;85.87
47330;BME280;33060;50.178;7.570;2023-03-16T06:17:53;97154.38;;;1.57;85.70
47330;BME280;33060;50.178;7.570;2023-03-16T06:20:20;97162.00;;;1.62;85.25
47330;BME280;33060;50.178;7.570;2023-03-16T06:22:47;97154.19;;;1.62;85.54
47330;BME280;33060;50.178;7.570;2023-03-16T06:25:15;97153.41;;;1.60;86.22
47330;BME280;33060;50.178;7.570;2023-03-16T06:27:44;97161.94;;;1.63;86.46
47330;BME280;33060;50.178;7.570;2023-03-16T06:30:15;97161.03;;;1.64;86.54
47330;BME280;33060;50.178;7.570;2023-03-16T06:32:42;97160.00;;;1.70;86.22
47330;BME280;33060;50.178;7.570;2023-03-16T06:35:11;97158.00;;;1.78;86.32
47330;BME280;33060;50.178;7.570;2023-03-16T06:37:43;97151.63;;;1.87;85.84
47330;BME280;33060;50.178;7.570;2023-03-16T06:40:30;97150.41;;;1.97;85.67
47330;BME280;33060;50.178;7.570;2023-03-16T06:42:57;97152.75;;;2.05;85.37
47330;BME280;33060;50.178;7.570;2023-03-16T06:45:24;97156.72;;;2.15;84.77
47330;BME280;33060;50.178;7.570;2023-03-16T06:47:53;97161.53;;;2.25;84.60
47330;BME280;33060;50.178;7.570;2023-03-16T06:50:20;97161.66;;;2.22;84.21
47330;BME280;33060;50.178;7.570;2023-03-16T06:52:46;97149.97;;;2.34;84.02
47330;BME280;33060;50.178;7.570;2023-03-16T06:55:13;97151.69;;;2.35;83.86
47330;BME280;33060;50.178;7.570;2023-03-16T06:57:43;97152.81;;;2.51;83.31
47330;BME280;33060;50.178;7.570;2023-03-16T07:00:12;97155.31;;;2.54;82.84
47330;BME280;33060;50.178;7.570;2023-03-16T07:02:40;97143.88;;;2.59;82.52
47330;BME280;33060;50.178;7.570;2023-03-16T07:05:19;97153.03;;;2.69;82.43
47330;BME280;33060;50.178;7.570;2023-03-16T07:07:46;97155.25;;;2.79;81.70
47330;BME280;33060;50.178;7.570;2023-03-16T07:10:16;97150.84;;;2.81;81.47
47330;BME280;33060;50.178;7.570;2023-03-16T07:12:43;97154.09;;;2.87;80.26
47330;BME280;33060;50.178;7.570;2023-03-16T07:15:11;97150.66;;;2.86;81.06
47330;BME280;33060;50.178;7.570;2023-03-16T07:17:38;97158.66;;;2.81;80.92
47330;BME280;33060;50.178;7.570;2023-03-16T07:20:07;97158.03;;;2.75;80.88
47330;BME280;33060;50.178;7.570;2023-03-16T07:22:37;97153.56;;;2.78;80.63
47330;BME280;33060;50.178;7.570;2023-03-16T07:25:07;97161.19;;;2.83;80.73
47330;BME280;33060;50.178;7.570;2023-03-16T07:27:34;97158.09;;;2.95;80.02
47330;BME280;33060;50.178;7.570;2023-03-16T07:30:04;97161.72;;;3.15;78.50
47330;BME280;33060;50.178;7.570;2023-03-16T07:32:34;97157.72;;;3.28;78.64
47330;BME280;33060;50.178;7.570;2023-03-16T07:35:02;97148.75;;;3.57;76.96
47330;BME280;33060;50.178;7.570;2023-03-16T07:37:31;97167.16;;;3.74;76.76
47330;BME280;33060;50.178;7.570;2023-03-16T07:39:59;97159.66;;;3.87;76.06
47330;BME280;33060;50.178;7.570;2023-03-16T07:42:26;97163.25;;;4.05;75.40
47330;BME280;33060;50.178;7.570;2023-03-16T07:45:06;97148.09;;;4.33;74.18
47330;BME280;33060;50.178;7.570;2023-03-16T07:47:33;97150.13;;;4.47;73.00
47330;BME280;33060;50.178;7.570;2023-03-16T07:50:09;97149.59;;;4.39;72.67
47330;BME280;33060;50.178;7.570;2023-03-16T07:52:40;97165.28;;;4.39;72.42
47330;BME280;33060;50.178;7.570;2023-03-16T07:55:08;97149.75;;;4.36;71.73
47330;BME280;33060;50.178;7.570;2023-03-16T07:57:35;97145.25;;;4.58;71.92
47330;BME280;33060;50.178;7.570;2023-03-16T08:00:02;97142.56;;;4.60;71.47
47330;BME280;33060;50.178;7.570;2023-03-16T08:02:38;97143.78;;;4.52;71.54
47330;BME280;33060;50.178;7.570;2023-03-16T08:05:17;97152.47;;;4.72;71.58
47330;BME280;33060;50.178;7.570;2023-03-16T08:07:47;97153.56;;;5.05;71.26
47330;BME280;33060;50.178;7.570;2023-03-16T08:10:18;97146.25;;;5.12;70.29
47330;BME280;33060;50.178;7.570;2023-03-16T08:12:52;97151.53;;;5.29;70.23
47330;BME280;33060;50.178;7.570;2023-03-16T08:15:19;97145.53;;;5.27;69.94
47330;BME280;33060;50.178;7.570;2023-03-16T08:17:49;97167.09;;;5.32;70.26
47330;BME280;33060;50.178;7.570;2023-03-16T08:20:21;97162.59;;;5.17;69.62
47330;BME280;33060;50.178;7.570;2023-03-16T08:22:48;97156.03;;;4.90;69.96
47330;BME280;33060;50.178;7.570;2023-03-16T08:25:17;97147.69;;;4.81;70.98
47330;BME280;33060;50.178;7.570;2023-03-16T08:27:57;97147.25;;;5.09;70.42
47330;BME280;33060;50.178;7.570;2023-03-16T08:30:24;97142.22;;;5.24;69.71
47330;BME280;33060;50.178;7.570;2023-03-16T08:33:09;97142.19;;;5.43;69.15
47330;BME280;33060;50.178;7.570;2023-03-16T08:35:35;97134.38;;;5.60;68.78
47330;BME280;33060;50.178;7.570;2023-03-16T08:38:02;97133.28;;;5.64;69.15
47330;BME280;33060;50.178;7.570;2023-03-16T08:40:29;97124.97;;;5.73;69.63
47330;BME280;33060;50.178;7.570;2023-03-16T08:42:57;97125.16;;;5.87;67.78
47330;BME280;33060;50.178;7.570;2023-03-16T08:45:24;97116.09;;;5.94;66.43
47330;BME280;33060;50.178;7.570;2023-03-16T08:47:51;97115.00;;;5.99;65.81
47330;BME280;33060;50.178;7.570;2023-03-16T08:50:19;97124.09;;;6.26;66.14
47330;BME280;33060;50.178;7.570;2023-03-16T08:52:46;97121.06;;;6.34;65.86
47330;BME280;33060;50.178;7.570;2023-03-16T08:55:14;97119.28;;;6.51;65.72
47330;BME280;33060;50.178;7.570;2023-03-16T08:57:41;97122.66;;;6.54;64.90
47330;BME280;33060;50.178;7.570;2023-03-16T09:00:11;97132.16;;;6.72;64.84
47330;BME280;33060;50.178;7.570;2023-03-16T09:02:51;97124.34;;;6.55;64.33
47330;BME280;33060;50.178;7.570;2023-03-16T09:05:18;97126.59;;;6.45;64.75
47330;BME280;33060;50.178;7.570;2023-03-16T09:07:45;97122.16;;;6.63;65.05
47330;BME280;33060;50.178;7.570;2023-03-16T09:10:14;97127.53;;;6.44;64.79
47330;BME280;33060;50.178;7.570;2023-03-16T09:12:42;97120.66;;;6.41;64.92
47330;BME280;33060;50.178;7.570;2023-03-16T09:15:10;97118.63;;;6.79;63.58
47330;BME280;33060;50.178;7.570;2023-03-16T09:17:37;97111.75;;;6.77;66.13
47330;BME280;33060;50.178;7.570;2023-03-16T09:20:05;97113.47;;;6.94;64.63
47330;BME280;33060;50.178;7.570;2023-03-16T09:22:47;97118.06;;;7.06;63.97
47330;BME280;33060;50.178;7.570;2023-03-16T09:25:14;97122.09;;;7.27;62.52
47330;BME280;33060;50.178;7.570;2023-03-16T09:27:41;97114.88;;;7.47;62.61
47330;BME280;33060;50.178;7.570;2023-03-16T09:30:08;97117.28;;;7.51;61.17
47330;BME280;33060;50.178;7.570;2023-03-16T09:32:35;97106.13;;;7.78;61.33
47330;BME280;33060;50.178;7.570;2023-03-16T09:35:04;97113.47;;;7.87;60.77
47330;BME280;33060;50.178;7.570;2023-03-16T09:37:32;97103.00;;;8.15;59.72
47330;BME280;33060;50.178;7.570;2023-03-16T09:40:20;97109.50;;;8.24;60.61
47330;BME280;33060;50.178;7.570;2023-03-16T09:45:49;97109.69;;;8.21;60.86
47330;BME280;33060;50.178;7.570;2023-03-16T09:48:19;97109.78;;;7.75;58.72
47330;BME280;33060;50.178;7.570;2023-03-16T09:50:47;97114.22;;;7.59;59.83
47330;BME280;33060;50.178;7.570;2023-03-16T09:53:24;97121.34;;;7.87;61.69
47330;BME280;33060;50.178;7.570;2023-03-16T09:55:58;97117.53;;;7.92;59.55
47330;BME280;33060;50.178;7.570;2023-03-16T09:58:27;97126.06;;;7.96;60.50
47330;BME280;33060;50.178;7.570;2023-03-16T10:03:57;97128.91;;;8.52;60.63
47330;BME280;33060;50.178;7.570;2023-03-16T10:06:27;97117.72;;;8.76;58.50
47330;BME280;33060;50.178;7.570;2023-03-16T10:09:06;97113.31;;;8.91;55.40
47330;BME280;33060;50.178;7.570;2023-03-16T10:11:43;97105.50;;;9.04;57.65
47330;BME280;33060;50.178;7.570;2023-03-16T10:14:18;97108.25;;;8.88;56.87
47330;BME280;33060;50.178;7.570;2023-03-16T10:16:53;97117.91;;;8.59;58.26
47330;BME280;33060;50.178;7.570;2023-03-16T10:19:36;97112.19;;;8.38;56.92
47330;BME280;33060;50.178;7.570;2023-03-16T10:22:16;97102.22;;;8.58;55.94
47330;BME280;33060;50.178;7.570;2023-03-16T10:27:46;97104.78;;;8.73;59.82
47330;BME280;33060;50.178;7.570;2023-03-16T10:30:25;97099.72;;;8.70;55.56
47330;BME280;33060;50.178;7.570;2023-03-16T10:32:55;97095.47;;;8.68;58.58
47330;BME280;33060;50.178;7.570;2023-03-16T10:37:56;97092.56;;;8.72;56.53
47330;BME280;33060;50.178;7.570;2023-03-16T10:40:24;97101.56;;;8.68;57.40
47330;BME280;33060;50.178;7.570;2023-03-16T10:42:52;97098.56;;;8.46;56.03
47330;BME280;33060;50.178;7.570;2023-03-16T10:45:23;97101.72;;;8.22;57.31
47330;BME280;33060;50.178;7.570;2023-03-16T10:47:53;97104.22;;;8.54;57.50
47330;BME280;33060;50.178;7.570;2023-03-16T10:50:31;97103.53;;;8.50;58.12
47330;BME280;33060;50.178;7.570;2023-03-16T10:52:59;97102.44;;;8.55;58.61
47330;BME280;33060;50.178;7.570;2023-03-16T10:55:31;97103.38;;;8.54;58.88
47330;BME280;33060;50.178;7.570;2023-03-16T10:58:07;97095.19;;;8.58;58.45
47330;BME280;33060;50.178;7.570;2023-03-16T11:00:40;97093.47;;;8.86;58.72
47330;BME280;33060;50.178;7.570;2023-03-16T11:03:30;97090.88;;;8.71;58.96
47330;BME280;33060;50.178;7.570;2023-03-16T11:06:03;97100.34;;;9.29;57.74
47330;BME280;33060;50.178;7.570;2023-03-16T11:08:33;97094.38;;;9.13;57.62
47330;BME280;33060;50.178;7.570;2023-03-16T11:11:08;97096.19;;;9.13;57.23
47330;BME280;33060;50.178;7.570;2023-03-16T11:13:36;97079.28;;;9.29;57.63
47330;BME280;33060;50.178;7.570;2023-03-16T11:18:42;97073.88;;;9.45;58.34
47330;BME280;33060;50.178;7.570;2023-03-16T11:21:17;97071.53;;;9.80;58.96
47330;BME280;33060;50.178;7.570;2023-03-16T11:23:51;97066.53;;;10.15;56.19
47330;BME280;33060;50.178;7.570;2023-03-16T11:26:27;97058.53;;;10.04;55.25
47330;BME280;33060;50.178;7.570;2023-03-16T11:29:10;97066.31;;;9.93;56.97
47330;BME280;33060;50.178;7.570;2023-03-16T11:31:49;97061.03;;;9.41;56.67
47330;BME280;33060;50.178;7.570;2023-03-16T11:34:18;97060.22;;;9.53;56.85
47330;BME280;33060;50.178;7.570;2023-03-16T11:36:53;97060.72;;;9.98;57.32
47330;BME280;33060;50.178;7.570;2023-03-16T11:39:51;97060.59;;;9.20;57.79
47330;BME280;33060;50.178;7.570;2023-03-16T11:42:36;97069.91;;;8.84;58.76
47330;BME280;33060;50.178;7.570;2023-03-16T11:47:55;97059.16;;;8.60;59.00
47330;BME280;33060;50.178;7.570;2023-03-16T11:50:45;97066.88;;;8.33;58.93
47330;BME280;33060;50.178;7.570;2023-03-16T12:10:24;97030.34;;;8.44;60.07
47330;BME280;33060;50.178;7.570;2023-03-16T12:18:16;97010.25;;;8.85;59.33
47330;BME280;33060;50.178;7.570;2023-03-16T12:20:51;97016.22;;;9.01;60.05
47330;BME280;33060;50.178;7.570;2023-03-16T12:23:23;97009.13;;;8.89;59.31
47330;BME280;33060;50.178;7.570;2023-03-16T12:25:56;97006.78;;;9.11;57.86
47330;BME280;33060;50.178;7.570;2023-03-16T12:28:27;97003.72;;;9.31;55.99
47330;BME280;33060;50.178;7.570;2023-03-16T12:39:07;97000.84;;;8.95;57.50
47330;BME280;33060;50.178;7.570;2023-03-16T12:42:24;96995.47;;;9.23;57.45
47330;BME280;33060;50.178;7.570;2023-03-16T12:45:10;96990.22;;;9.23;56.22
47330;BME280;33060;50.178;7.570;2023-03-16T12:48:19;96989.25;;;9.24;56.92
47330;BME280;33060;50.178;7.570;2023-03-16T12:50:52;96979.81;;;9.34;56.78
47330;BME280;33060;50.178;7.570;2023-03-16T12:53:25;96975.00;;;9.54;59.16
47330;BME280;33060;50.178;7.570;2023-03-16T12:55:52;96973.03;;;9.70;58.12
47330;BME280;33060;50.178;7.570;2023-03-16T12:58:22;96972.28;;;9.68;55.46
47330;BME280;33060;50.178;7.570;2023-03-16T13:00:58;96959.44;;;9.76;53.81
47330;BME280;33060;50.178;7.570;2023-03-16T13:03:26;96952.38;;;9.89;52.76
47330;BME280;33060;50.178;7.570;2023-03-16T13:05:56;96949.00;;;9.87;52.78
47330;BME280;33060;50.178;7.570;2023-03-16T13:08:25;96955.75;;;9.66;57.41
47330;BME280;33060;50.178;7.570;2023-03-16T13:11:04;96959.53;;;9.62;57.51
47330;BME280;33060;50.178;7.570;2023-03-16T13:13:32;96954.84;;;9.27;58.31
47330;BME280;33060;50.178;7.570;2023-03-16T13:16:08;96954.16;;;9.89;57.32
47330;BME280;33060;50.178;7.570;2023-03-16T13:18:38;96959.75;;;9.97;58.08
47330;BME280;33060;50.178;7.570;2023-03-16T13:21:19;96950.59;;;9.65;57.70
47330;BME280;33060;50.178;7.570;2023-03-16T13:24:12;96947.97;;;9.77;55.94
47330;BME280;33060;50.178;7.570;2023-03-16T13:26:41;96946.78;;;10.19;55.77
47330;BME280;33060;50.178;7.570;2023-03-16T13:29:25;96952.22;;;10.42;57.70
47330;BME280;33060;50.178;7.570;2023-03-16T13:31:57;96948.91;;;10.27;54.47
47330;BME280;33060;50.178;7.570;2023-03-16T13:34:34;96940.97;;;10.14;56.46
47330;BME280;33060;50.178;7.570;2023-03-16T13:37:03;96937.06;;;10.45;54.79
47330;BME280;33060;50.178;7.570;2023-03-16T13:39:32;96935.38;;;10.32;56.70
47330;BME280;33060;50.178;7.570;2023-03-16T13:42:16;96938.00;;;10.44;55.94
47330;BME280;33060;50.178;7.570;2023-03-16T13:44:43;96936.13;;;10.21;55.69
47330;BME280;33060;50.178;7.570;2023-03-16T13:47:13;96944.13;;;10.19;57.12
47330;BME280;33060;50.178;7.570;2023-03-16T13:49:54;96935.31;;;9.82;56.83
47330;BME280;33060;50.178;7.570;2023-03-16T13:52:32;96925.44;;;9.73;57.89
47330;BME280;33060;50.178;7.570;2023-03-16T13:55:09;96924.97;;;10.05;58.00
47330;BME280;33060;50.178;7.570;2023-03-16T13:57:42;96928.91;;;9.74;58.53
47330;BME280;33060;50.178;7.570;2023-03-16T14:00:19;96924.47;;;10.00;58.22
47330;BME280;33060;50.178;7.570;2023-03-16T14:03:16;96916.44;;;9.88;58.47
47330;BME280;33060;50.178;7.570;2023-03-16T14:05:43;96920.44;;;9.81;57.88
47330;BME280;33060;50.178;7.570;2023-03-16T14:08:16;96909.41;;;9.51;59.06
47330;BME280;33060;50.178;7.570;2023-03-16T14:10:44;96900.22;;;9.44;58.51
47330;BME280;33060;50.178;7.570;2023-03-16T14:16:00;96895.59;;;9.85;57.48
47330;BME280;33060;50.178;7.570;2023-03-16T14:18:33;96893.59;;;9.76;59.19
47330;BME280;33060;50.178;7.570;2023-03-16T14:21:07;96893.91;;;9.59;59.67
47330;BME280;33060;50.178;7.570;2023-03-16T14:23:45;96892.72;;;9.38;59.88
47330;BME280;33060;50.178;7.570;2023-03-16T14:26:15;96892.09;;;9.34;60.39
47330;BME280;33060;50.178;7.570;2023-03-16T14:29:01;96874.59;;;9.07;60.27
47330;BME280;33060;50.178;7.570;2023-03-16T14:31:34;96876.41;;;9.20;61.42